createdAt,value
2023-03-31T00:01:10.208Z,29.53
2023-03-31T00:03:44.124Z,28.67
2023-03-31T00:06:18.870Z,28.97
2023-03-31T00:08:52.561Z,27.43
2023-03-31T00:11:22.606Z,28.20
2023-03-31T00:13:50.809Z,27.83
2023-03-31T00:16:18.937Z,27.37
2023-03-31T00:18:50.939Z,26.73
2023-03-31T00:21:29.872Z,25.90
2023-03-31T00:24:02.505Z,27.27
2023-03-31T00:26:31.575Z,26.13
2023-03-31T00:29:00.442Z,26.90
2023-03-31T00:31:29.535Z,25.83
2023-03-31T00:33:58.324Z,26.13
2023-03-31T00:36:28.406Z,26.50
2023-03-31T00:38:59.275Z,25.77
2023-03-31T00:41:30.933Z,26.67
2023-03-31T00:44:14.370Z,26.57
2023-03-31T00:46:48.619Z,26.77
2023-03-31T00:49:22.924Z,27.50
2023-03-31T00:51:54.055Z,26.63
2023-03-31T00:54:26.055Z,27.87
2023-03-31T00:56:58.734Z,27.60
2023-03-31T00:59:31.145Z,28.13
2023-03-31T01:02:02.884Z,28.63
2023-03-31T01:04:36.521Z,28.80
2023-03-31T01:07:12.563Z,28.87
2023-03-31T01:09:42.166Z,28.97
2023-03-31T01:12:12.224Z,28.30
2023-03-31T01:14:40.404Z,28.77
2023-03-31T01:17:09.886Z,29.27
2023-03-31T01:19:52.024Z,27.73
2023-03-31T01:22:59.540Z,28.57
2023-03-31T01:26:03.316Z,29.37
2023-03-31T01:28:40.435Z,29.40
2023-03-31T01:31:50.790Z,29.60
2023-03-31T01:34:50.041Z,29.63
2023-03-31T01:38:01.810Z,29.10
2023-03-31T01:40:55.724Z,29.23
2023-03-31T01:43:30.528Z,29.93
2023-03-31T01:46:06.992Z,28.50
2023-03-31T01:48:47.902Z,28.43
2023-03-31T01:51:20.668Z,28.97
2023-03-31T01:53:52.928Z,29.00
2023-03-31T01:56:27.890Z,28.90
2023-03-31T01:59:02.836Z,28.73
2023-03-31T02:01:38.034Z,28.33
2023-03-31T02:04:12.346Z,28.17
2023-03-31T02:06:45.035Z,28.43
2023-03-31T02:09:17.532Z,28.40
2023-03-31T02:11:49.484Z,27.67
2023-03-31T02:14:22.080Z,27.53
2023-03-31T02:16:53.726Z,28.13
2023-03-31T02:19:23.523Z,26.60
2023-03-31T02:21:52.506Z,26.73
2023-03-31T02:24:24.448Z,25.77
2023-03-31T02:27:00.795Z,25.07
2023-03-31T02:29:29.242Z,25.97
2023-03-31T02:32:02.082Z,23.60
2023-03-31T02:34:30.624Z,24.67
2023-03-31T02:37:00.151Z,25.20
2023-03-31T02:39:34.209Z,23.53
2023-03-31T02:42:07.490Z,23.57
2023-03-31T02:44:36.668Z,24.30
2023-03-31T02:47:07.516Z,23.20
2023-03-31T02:49:36.625Z,21.57
2023-03-31T02:52:29.323Z,22.23
2023-03-31T02:55:16.523Z,21.63
2023-03-31T02:58:06.774Z,21.40
2023-03-31T03:00:49.316Z,21.00
2023-03-31T03:03:31.346Z,21.97
2023-03-31T03:06:07.408Z,20.70
2023-03-31T03:09:09.175Z,20.93
2023-03-31T03:11:48.034Z,21.30
2023-03-31T03:14:29.915Z,21.30
2023-03-31T03:17:02.784Z,20.80
2023-03-31T03:19:31.094Z,20.57
2023-03-31T03:21:59.616Z,20.07
2023-03-31T03:24:29.870Z,19.90
2023-03-31T03:26:58.608Z,20.53
2023-03-31T03:29:28.344Z,19.87
2023-03-31T03:31:56.615Z,19.80
2023-03-31T03:34:25.706Z,20.30
2023-03-31T03:36:53.834Z,19.97
2023-03-31T03:39:22.706Z,19.97
2023-03-31T03:41:50.837Z,19.80
2023-03-31T03:44:18.880Z,18.77
2023-03-31T03:46:48.377Z,18.60
2023-03-31T03:49:16.504Z,18.90
2023-03-31T03:51:44.602Z,18.53
2023-03-31T03:54:12.669Z,17.87
2023-03-31T03:56:40.725Z,18.23
2023-03-31T03:59:08.885Z,17.80
2023-03-31T04:01:37.389Z,17.30
2023-03-31T04:04:07.140Z,16.77
2023-03-31T04:06:35.583Z,17.07
2023-03-31T04:09:04.422Z,16.57
2023-03-31T04:11:33.395Z,16.00
2023-03-31T04:14:01.472Z,16.43
2023-03-31T04:16:29.866Z,16.00
2023-03-31T04:18:59.597Z,15.50
2023-03-31T04:21:30.797Z,15.77
2023-03-31T04:24:01.969Z,17.50
2023-03-31T04:26:39.116Z,16.73
2023-03-31T04:29:07.645Z,16.70
2023-03-31T04:31:38.816Z,16.43
2023-03-31T04:34:13.194Z,16.57
2023-03-31T04:36:47.329Z,15.87
2023-03-31T04:39:16.821Z,16.27
2023-03-31T04:41:45.560Z,15.57
2023-03-31T04:44:13.632Z,16.40
2023-03-31T04:46:41.917Z,16.87
2023-03-31T04:49:09.991Z,16.13
2023-03-31T04:51:38.078Z,15.90
2023-03-31T04:54:07.824Z,16.00
2023-03-31T04:56:36.090Z,15.83
2023-03-31T04:59:04.644Z,16.07
2023-03-31T05:01:36.517Z,16.03
2023-03-31T05:04:04.830Z,15.97
2023-03-31T05:06:32.957Z,15.57
2023-03-31T05:09:07.259Z,15.50
2023-03-31T05:11:36.953Z,15.20
2023-03-31T05:14:05.273Z,14.97
2023-03-31T05:16:33.378Z,15.20
2023-03-31T05:19:01.576Z,14.53
2023-03-31T05:21:30.749Z,14.30
2023-03-31T05:23:59.164Z,14.47
2023-03-31T05:26:27.459Z,14.10
2023-03-31T05:28:56.918Z,14.70
2023-03-31T05:31:25.007Z,14.53
2023-03-31T05:33:53.052Z,14.27
2023-03-31T05:36:23.793Z,14.13
2023-03-31T05:38:52.555Z,15.07
2023-03-31T05:41:21.278Z,14.60
2023-03-31T05:43:49.511Z,13.30
2023-03-31T05:46:19.547Z,13.30
2023-03-31T05:48:47.682Z,14.30
2023-03-31T05:51:15.728Z,13.27
2023-03-31T05:53:44.141Z,13.67
2023-03-31T05:56:12.271Z,14.37
2023-03-31T05:58:40.683Z,13.80
2023-03-31T06:01:11.682Z,14.13
2023-03-31T06:03:43.026Z,14.40
2023-03-31T06:06:13.152Z,14.27
2023-03-31T06:08:41.449Z,13.97
2023-03-31T06:11:12.251Z,14.77
2023-03-31T06:13:41.160Z,14.00
2023-03-31T06:16:11.336Z,13.67
2023-03-31T06:18:39.523Z,12.70
2023-03-31T06:21:11.663Z,13.10
2023-03-31T06:23:39.702Z,12.57
2023-03-31T06:26:09.522Z,11.97
2023-03-31T06:28:37.732Z,12.30
2023-03-31T06:31:07.973Z,10.80
2023-03-31T06:33:36.961Z,11.47
2023-03-31T06:36:05.946Z,10.67
2023-03-31T06:38:36.753Z,10.13
2023-03-31T06:41:05.380Z,10.43
2023-03-31T06:43:33.955Z,9.57
2023-03-31T06:46:02.485Z,9.17
2023-03-31T06:48:30.587Z,8.60
2023-03-31T06:51:01.636Z,8.93
2023-03-31T06:53:30.736Z,8.40
2023-03-31T06:56:00.470Z,8.03
2023-03-31T06:58:31.087Z,8.77
2023-03-31T07:00:59.946Z,8.70
2023-03-31T07:03:29.682Z,8.23
2023-03-31T07:05:57.849Z,7.30
2023-03-31T07:08:26.189Z,7.97
2023-03-31T07:10:57.866Z,7.40
2023-03-31T07:13:28.424Z,7.27
2023-03-31T07:15:57.030Z,7.17
2023-03-31T07:18:34.992Z,7.60
2023-03-31T07:21:06.514Z,7.80
2023-03-31T07:23:36.167Z,7.70
2023-03-31T07:26:04.266Z,7.70
2023-03-31T07:28:34.006Z,7.53
2023-03-31T07:31:02.148Z,6.20
2023-03-31T07:33:30.170Z,6.33
2023-03-31T07:36:10.734Z,5.97
2023-03-31T07:38:41.334Z,5.77
2023-03-31T07:41:11.984Z,5.40
2023-03-31T07:43:41.898Z,5.90
2023-03-31T07:46:16.595Z,5.60
2023-03-31T07:48:46.520Z,5.60
2023-03-31T07:51:15.371Z,5.37
2023-03-31T07:53:43.470Z,5.50
2023-03-31T07:56:11.730Z,6.10
2023-03-31T07:58:41.143Z,6.40
2023-03-31T08:01:09.434Z,6.13
2023-03-31T08:03:37.637Z,6.53
2023-03-31T08:06:06.192Z,7.03
2023-03-31T08:08:34.552Z,6.17
2023-03-31T08:11:02.634Z,5.63
2023-03-31T08:13:30.710Z,5.90
2023-03-31T08:16:00.289Z,5.37
2023-03-31T08:18:28.586Z,5.43
2023-03-31T08:20:56.734Z,5.03
2023-03-31T08:23:24.787Z,5.00
2023-03-31T08:25:52.931Z,5.77
2023-03-31T08:28:20.965Z,4.80
2023-03-31T08:30:49.266Z,4.90
2023-03-31T08:33:19.002Z,4.90
2023-03-31T08:35:47.121Z,5.07
2023-03-31T08:38:15.194Z,4.47
2023-03-31T08:40:43.504Z,4.70
2023-03-31T08:43:18.538Z,5.10
2023-03-31T08:45:48.897Z,4.23
2023-03-31T08:48:26.128Z,4.87
2023-03-31T08:50:59.878Z,4.30
2023-03-31T08:53:30.989Z,4.68
2023-03-31T08:56:01.544Z,5.10
2023-03-31T08:58:37.959Z,4.00
2023-03-31T09:01:17.132Z,4.32
2023-03-31T09:03:59.499Z,4.75
2023-03-31T09:06:38.194Z,3.97
2023-03-31T09:09:11.837Z,3.70
2023-03-31T09:11:45.562Z,2.97
2023-03-31T09:14:28.009Z,3.35
2023-03-31T09:17:08.382Z,3.80
2023-03-31T09:19:42.193Z,3.53
2023-03-31T09:22:17.737Z,4.97
2023-03-31T09:24:52.328Z,4.95
2023-03-31T09:27:22.105Z,4.55
2023-03-31T09:29:54.198Z,4.65
2023-03-31T09:32:24.267Z,4.70
2023-03-31T09:34:58.478Z,3.58
2023-03-31T09:37:31.386Z,3.83
2023-03-31T09:40:02.301Z,3.60
2023-03-31T09:42:30.466Z,4.35
2023-03-31T09:44:58.497Z,3.50
2023-03-31T09:47:33.498Z,5.70
2023-03-31T09:50:03.132Z,3.50
2023-03-31T09:52:33.546Z,5.45
2023-03-31T09:55:03.497Z,3.63
2023-03-31T09:57:34.477Z,3.25
2023-03-31T10:00:16.546Z,3.50
2023-03-31T10:02:50.169Z,3.65
2023-03-31T10:05:29.517Z,3.03
2023-03-31T10:08:20.217Z,3.88
2023-03-31T10:10:50.964Z,3.03
2023-03-31T10:13:22.242Z,3.33
2023-03-31T10:15:54.017Z,3.50
2023-03-31T10:18:32.721Z,4.10
2023-03-31T10:21:04.972Z,3.10
2023-03-31T10:23:35.410Z,3.58
2023-03-31T10:26:05.254Z,3.50
2023-03-31T10:28:35.843Z,3.65
2023-03-31T10:31:05.482Z,5.57
2023-03-31T10:33:35.857Z,3.25
2023-03-31T10:36:11.193Z,4.20
2023-03-31T10:38:45.312Z,2.70
2023-03-31T10:41:19.387Z,2.78
2023-03-31T10:43:51.631Z,4.72
2023-03-31T10:46:20.445Z,4.80
2023-03-31T10:48:48.687Z,4.68
2023-03-31T10:51:20.524Z,2.90
2023-03-31T10:53:49.865Z,2.88
2023-03-31T10:56:39.371Z,3.28
2023-03-31T10:59:23.765Z,3.17
2023-03-31T11:02:10.890Z,3.58
2023-03-31T11:04:48.769Z,4.07
2023-03-31T11:07:33.610Z,2.75
2023-03-31T11:10:17.956Z,2.95
2023-03-31T11:12:53.374Z,3.38
2023-03-31T11:15:26.810Z,3.58
2023-03-31T11:18:08.097Z,2.65
2023-03-31T11:20:42.953Z,3.47
2023-03-31T11:23:22.424Z,3.03
2023-03-31T11:25:59.794Z,2.95
2023-03-31T11:28:43.677Z,3.03
2023-03-31T11:31:28.836Z,2.63
2023-03-31T11:34:08.243Z,2.47
2023-03-31T11:37:11.940Z,13.50
2023-03-31T11:39:51.863Z,3.15
2023-03-31T11:42:27.278Z,3.83
2023-03-31T11:45:03.004Z,2.80
2023-03-31T11:47:37.891Z,3.35
2023-03-31T11:50:13.748Z,3.78
2023-03-31T11:52:44.658Z,4.10
2023-03-31T11:55:19.164Z,2.60
2023-03-31T11:57:52.642Z,3.35
2023-03-31T12:00:23.854Z,2.90
2023-03-31T12:02:57.912Z,3.30
2023-03-31T12:05:29.192Z,3.90
2023-03-31T12:08:03.972Z,4.07
2023-03-31T12:10:36.757Z,3.72
2023-03-31T12:13:24.445Z,3.03
2023-03-31T12:16:01.451Z,3.13
2023-03-31T12:18:34.012Z,3.03
2023-03-31T12:21:05.151Z,3.25
2023-03-31T12:23:38.229Z,3.00
2023-03-31T12:26:14.808Z,3.15
2023-03-31T12:28:45.841Z,3.60
2023-03-31T12:31:22.127Z,4.05
2023-03-31T12:33:55.830Z,3.53
2023-03-31T12:36:35.287Z,3.55
2023-03-31T12:39:20.400Z,13.45
2023-03-31T12:42:06.172Z,4.00
2023-03-31T12:44:44.793Z,3.30
2023-03-31T12:47:36.955Z,3.40
2023-03-31T12:50:20.560Z,3.17
2023-03-31T12:52:58.252Z,3.42
2023-03-31T12:55:34.401Z,4.60
2023-03-31T12:58:39.740Z,3.78
2023-03-31T13:01:12.131Z,3.50
2023-03-31T13:03:49.357Z,3.63
2023-03-31T13:06:52.614Z,3.78
2023-03-31T13:09:52.310Z,14.77
2023-03-31T13:12:23.707Z,4.18
2023-03-31T13:14:54.370Z,4.50
2023-03-31T13:17:27.961Z,3.53
2023-03-31T13:19:58.005Z,3.38
2023-03-31T13:22:45.102Z,3.47
2023-03-31T13:25:46.833Z,3.00
2023-03-31T13:28:39.230Z,4.00
2023-03-31T13:31:08.291Z,4.18
2023-03-31T13:33:48.821Z,5.65
2023-03-31T13:36:54.321Z,2.92
2023-03-31T13:39:52.182Z,3.33
2023-03-31T13:42:39.038Z,2.55
2023-03-31T13:45:16.636Z,3.80
2023-03-31T13:47:59.850Z,2.92
2023-03-31T13:51:06.029Z,3.65
2023-03-31T13:53:54.548Z,3.10
2023-03-31T13:56:49.797Z,5.85
2023-03-31T13:59:32.447Z,4.05
2023-03-31T14:02:22.826Z,3.28
2023-03-31T14:05:24.964Z,3.00
2023-03-31T14:07:58.265Z,4.10
2023-03-31T14:10:30.811Z,3.40
2023-03-31T14:13:11.405Z,3.50
2023-03-31T14:15:43.592Z,3.13
2023-03-31T14:18:17.117Z,2.42
2023-03-31T14:20:57.502Z,3.00
2023-03-31T14:23:39.557Z,4.20
2023-03-31T14:26:16.032Z,2.92
2023-03-31T14:29:11.653Z,3.95
2023-03-31T14:31:46.335Z,3.88
2023-03-31T14:34:40.013Z,3.97
2023-03-31T14:37:11.608Z,3.42
2023-03-31T14:39:43.820Z,3.50
2023-03-31T14:42:15.014Z,4.95
2023-03-31T14:44:47.030Z,5.35
2023-03-31T14:47:16.859Z,3.97
2023-03-31T14:49:44.973Z,3.42
2023-03-31T14:52:19.561Z,3.17
2023-03-31T14:54:49.212Z,4.05
2023-03-31T14:57:20.828Z,2.30
2023-03-31T14:59:51.856Z,2.30
2023-03-31T15:02:30.225Z,2.78
2023-03-31T15:04:58.836Z,2.80
2023-03-31T15:07:28.646Z,2.80
2023-03-31T15:09:58.477Z,2.28
2023-03-31T15:12:29.434Z,2.58
2023-03-31T15:15:01.965Z,3.72
2023-03-31T15:17:33.260Z,3.38
2023-03-31T15:20:04.861Z,2.72
2023-03-31T15:22:33.020Z,2.15
2023-03-31T15:25:02.568Z,2.50
2023-03-31T15:27:37.800Z,1.90
2023-03-31T15:30:09.045Z,3.40
2023-03-31T15:32:39.157Z,2.50
2023-03-31T15:35:21.160Z,2.38
2023-03-31T15:37:53.155Z,2.60
2023-03-31T15:40:25.193Z,2.20
2023-03-31T15:43:06.733Z,2.58
2023-03-31T15:45:51.321Z,2.30
2023-03-31T15:48:28.482Z,2.10
2023-03-31T15:51:02.654Z,2.78
2023-03-31T15:53:38.612Z,2.37
2023-03-31T15:56:08.462Z,2.37
2023-03-31T15:59:04.521Z,2.67
2023-03-31T16:01:35.806Z,3.27
2023-03-31T16:04:08.542Z,2.95
2023-03-31T16:06:43.754Z,3.77
2023-03-31T16:09:16.246Z,4.23
2023-03-31T16:11:50.183Z,3.30
2023-03-31T16:14:22.166Z,3.40
2023-03-31T16:16:54.125Z,4.45
2023-03-31T16:19:26.235Z,2.90
2023-03-31T16:21:59.693Z,4.13
2023-03-31T16:24:32.880Z,3.28
2023-03-31T16:27:06.627Z,3.95
2023-03-31T16:29:35.580Z,3.27
2023-03-31T16:32:12.747Z,3.13
2023-03-31T16:34:56.079Z,3.60
2023-03-31T16:37:25.069Z,3.50
2023-03-31T16:39:53.646Z,2.93
2023-03-31T16:42:23.164Z,2.85
2023-03-31T16:45:09.503Z,3.33
2023-03-31T16:47:42.057Z,3.22
2023-03-31T16:50:12.498Z,4.07
2023-03-31T16:52:40.611Z,2.85
2023-03-31T16:55:09.371Z,3.70
2023-03-31T16:57:39.005Z,3.07
2023-03-31T17:00:08.569Z,4.37
2023-03-31T17:02:36.811Z,3.60
2023-03-31T17:05:12.566Z,4.40
2023-03-31T17:07:41.501Z,4.63
2023-03-31T17:10:10.696Z,3.77
2023-03-31T17:12:40.684Z,4.07
2023-03-31T17:15:10.298Z,3.70
2023-03-31T17:17:38.496Z,4.60
2023-03-31T17:20:08.183Z,4.60
2023-03-31T17:22:36.820Z,4.93
2023-03-31T17:25:05.759Z,4.13
2023-03-31T17:27:33.854Z,4.00
2023-03-31T17:32:34.407Z,4.57
2023-03-31T17:35:03.863Z,4.50
2023-03-31T17:37:32.019Z,5.93
2023-03-31T17:40:00.178Z,4.83
2023-03-31T17:42:28.208Z,5.13
2023-03-31T17:44:56.322Z,5.90
2023-03-31T17:47:26.271Z,5.73
2023-03-31T17:49:54.843Z,5.77
2023-03-31T17:52:23.697Z,5.90
2023-03-31T17:54:52.920Z,7.57
2023-03-31T17:57:21.422Z,6.27
2023-03-31T17:59:49.751Z,8.00
2023-03-31T18:02:18.867Z,6.13
2023-03-31T18:04:49.028Z,6.53
2023-03-31T18:07:19.041Z,6.83
2023-03-31T18:09:48.608Z,6.97
2023-03-31T18:12:16.696Z,9.33
2023-03-31T18:14:44.766Z,9.33
2023-03-31T18:17:15.146Z,9.77
2023-03-31T18:19:44.032Z,10.70
2023-03-31T18:22:13.966Z,11.77
2023-03-31T18:24:42.337Z,10.40
2023-03-31T18:27:10.796Z,10.63
2023-03-31T18:29:39.893Z,11.10
2023-03-31T18:32:08.198Z,10.20
2023-03-31T18:34:38.333Z,10.30
2023-03-31T18:37:06.692Z,9.47
2023-03-31T18:39:36.550Z,9.70
2023-03-31T18:42:05.350Z,10.60
2023-03-31T18:44:35.487Z,11.23
2023-03-31T18:47:03.819Z,11.90
2023-03-31T18:49:31.967Z,10.70
2023-03-31T18:52:02.498Z,13.50
2023-03-31T18:54:30.660Z,10.63
2023-03-31T18:57:01.662Z,9.30
2023-03-31T18:59:29.846Z,9.80
2023-03-31T19:01:57.974Z,10.20
2023-03-31T19:04:27.123Z,9.23
2023-03-31T19:06:56.512Z,9.50
2023-03-31T19:09:26.573Z,8.57
2023-03-31T19:11:54.814Z,10.47
2023-03-31T19:14:24.925Z,9.53
2023-03-31T19:16:53.277Z,10.57
2023-03-31T19:19:21.374Z,9.53
2023-03-31T19:21:50.122Z,9.27
2023-03-31T19:24:18.233Z,8.37
2023-03-31T19:26:46.428Z,9.63
2023-03-31T19:29:14.542Z,9.17
2023-03-31T19:31:45.303Z,10.57
2023-03-31T19:34:14.129Z,8.80
2023-03-31T19:36:42.180Z,10.10
2023-03-31T19:39:11.517Z,9.43
2023-03-31T19:41:39.728Z,19.20
2023-03-31T19:44:07.788Z,10.17
2023-03-31T19:46:35.956Z,9.10
2023-03-31T19:49:05.846Z,12.53
2023-03-31T19:51:34.015Z,14.00
2023-03-31T19:54:02.156Z,11.73
2023-03-31T19:56:31.637Z,9.10
2023-03-31T19:59:00.333Z,12.30
2023-03-31T20:01:29.124Z,10.60
2023-03-31T20:03:57.630Z,10.83
2023-03-31T20:06:28.767Z,11.77
2023-03-31T20:08:58.840Z,10.27
2023-03-31T20:11:28.384Z,9.40
2023-03-31T20:13:57.358Z,10.43
2023-03-31T20:16:27.515Z,9.37
2023-03-31T20:18:57.817Z,9.47
2023-03-31T20:21:29.073Z,8.93
2023-03-31T20:23:58.940Z,9.40
2023-03-31T20:26:29.612Z,9.23
2023-03-31T20:28:58.877Z,9.93
2023-03-31T20:31:28.942Z,10.97
2023-03-31T20:33:57.760Z,10.40
2023-03-31T20:36:31.641Z,12.63
2023-03-31T20:39:03.492Z,16.90
2023-03-31T20:41:31.980Z,10.83
2023-03-31T20:44:01.050Z,11.03
2023-03-31T20:46:29.607Z,11.30
2023-03-31T20:48:58.936Z,12.57
2023-03-31T20:51:30.004Z,10.30
2023-03-31T20:54:00.222Z,11.07
2023-03-31T20:56:30.346Z,11.27
2023-03-31T20:58:59.787Z,11.07
2023-03-31T21:01:29.762Z,12.63
2023-03-31T21:04:00.711Z,11.57
2023-03-31T21:06:32.653Z,12.50
2023-03-31T21:09:01.059Z,13.60
2023-03-31T21:11:29.578Z,12.87
2023-03-31T21:13:57.638Z,13.57
2023-03-31T21:16:25.927Z,13.43
2023-03-31T21:18:55.045Z,15.03
2023-03-31T21:21:24.967Z,16.33
2023-03-31T21:23:55.194Z,15.40
2023-03-31T21:26:24.985Z,16.37
2023-03-31T21:28:54.920Z,16.70
2023-03-31T21:31:24.940Z,15.67
2023-03-31T21:33:56.631Z,16.30
2023-03-31T21:36:26.792Z,15.57
2023-03-31T21:38:57.523Z,15.90
2023-03-31T21:41:27.240Z,16.20
2023-03-31T21:43:55.767Z,12.90
2023-03-31T21:46:26.592Z,16.60
2023-03-31T21:48:55.210Z,14.27
2023-03-31T21:51:24.414Z,14.80
2023-03-31T21:53:55.688Z,13.47
2023-03-31T21:56:27.782Z,14.73
2023-03-31T21:58:57.254Z,14.37
2023-03-31T22:01:25.332Z,17.27
2023-03-31T22:03:53.455Z,13.73
2023-03-31T22:06:22.472Z,13.00
2023-03-31T22:08:50.926Z,11.63
2023-03-31T22:11:18.966Z,10.53
2023-03-31T22:13:48.486Z,8.90
2023-03-31T22:16:19.018Z,7.67
2023-03-31T22:18:50.250Z,6.77
2023-03-31T22:21:20.684Z,6.37
2023-03-31T22:23:49.010Z,5.37
2023-03-31T22:26:17.050Z,4.90
2023-03-31T22:28:45.112Z,4.50
2023-03-31T22:31:14.547Z,4.37
2023-03-31T22:33:42.702Z,4.33
2023-03-31T22:36:11.242Z,3.70
2023-03-31T22:38:39.610Z,4.20
2023-03-31T22:41:07.898Z,3.63
2023-03-31T22:43:36.019Z,3.83
2023-03-31T22:46:05.852Z,4.00
2023-03-31T22:48:35.762Z,4.00
2023-03-31T22:51:06.049Z,4.00
2023-03-31T22:53:34.416Z,3.47
2023-03-31T22:56:07.319Z,4.13
2023-03-31T22:58:36.190Z,3.90
2023-03-31T23:01:05.935Z,3.50
2023-03-31T23:03:35.501Z,3.80
2023-03-31T23:06:05.253Z,3.90
2023-03-31T23:08:35.689Z,4.07
2023-03-31T23:11:06.084Z,3.60
2023-03-31T23:13:34.202Z,3.63
2023-03-31T23:16:06.880Z,3.70
2023-03-31T23:18:37.238Z,4.27
2023-03-31T23:21:06.701Z,3.60
2023-03-31T23:23:34.826Z,3.80
2023-03-31T23:26:03.337Z,3.83
2023-03-31T23:28:31.757Z,3.60
2023-03-31T23:30:59.859Z,3.67
2023-03-31T23:33:29.363Z,4.73
2023-03-31T23:36:01.482Z,4.57
2023-03-31T23:38:30.061Z,4.43
2023-03-31T23:40:58.493Z,4.23
2023-03-31T23:43:27.528Z,4.13
2023-03-31T23:45:56.407Z,4.40
2023-03-31T23:48:24.587Z,4.23
2023-03-31T23:50:52.766Z,4.13
2023-03-31T23:53:22.195Z,4.20
2023-03-31T23:55:58.103Z,4.20
2023-03-31T23:58:27.366Z,4.50
